sensor_id;sensor_type;location;lat;lon;timestamp;pressure;altitude;pressure_sealevel;temperature;humidity
13709;BME280;54933;51.908;7.730;2022-09-03T00:02:08;100696.75;;;23.61;69.97
13709;BME280;54933;51.908;7.730;2022-09-03T00:04:52;100694.88;;;23.61;69.86
13709;BME280;54933;51.908;7.730;2022-09-03T00:10:30;100694.88;;;23.61;70.12
13709;BME280;54933;51.908;7.730;2022-09-03T00:13:00;100691.13;;;23.62;70.11
13709;BME280;54933;51.908;7.730;2022-09-03T00:15:27;100689.44;;;23.61;69.60
13709;BME280;54933;51.908;7.730;2022-09-03T00:17:59;100687.34;;;23.63;70.04
13709;BME280;54933;51.908;7.730;2022-09-03T00:20:50;100686.50;;;23.63;69.99
13709;BME280;54933;51.908;7.730;2022-09-03T00:23:25;100688.41;;;23.62;69.90
13709;BME280;54933;51.908;7.730;2022-09-03T00:25:56;100685.69;;;23.62;70.15
13709;BME280;54933;51.908;7.730;2022-09-03T00:28:31;100692.75;;;23.63;69.99
13709;BME280;54933;51.908;7.730;2022-09-03T00:31:31;100696.56;;;23.62;70.31
13709;BME280;54933;51.908;7.730;2022-09-03T00:34:15;100697.34;;;23.63;69.87
13709;BME280;54933;51.908;7.730;2022-09-03T00:36:43;100688.41;;;23.62;70.20
13709;BME280;54933;51.908;7.730;2022-09-03T00:39:18;100693.84;;;23.62;70.26
13709;BME280;54933;51.908;7.730;2022-09-03T00:55:37;100684.03;;;23.61;70.11
13709;BME280;54933;51.908;7.730;2022-09-03T01:00:49;100690.06;;;23.63;70.11
13709;BME280;54933;51.908;7.730;2022-09-03T01:11:31;100691.94;;;23.63;69.84
13709;BME280;54933;51.908;7.730;2022-09-03T01:17:29;100691.13;;;23.62;69.78
13709;BME280;54933;51.908;7.730;2022-09-03T01:25:36;100690.28;;;23.62;69.76
13709;BME280;54933;51.908;7.730;2022-09-03T01:28:28;100688.41;;;23.62;69.52
13709;BME280;54933;51.908;7.730;2022-09-03T01:31:19;100701.13;;;23.62;69.59
13709;BME280;54933;51.908;7.730;2022-09-03T01:35:14;100696.56;;;23.62;69.59
13709;BME280;54933;51.908;7.730;2022-09-03T01:37:15;100696.56;;;23.62;69.74
13709;BME280;54933;51.908;7.730;2022-09-03T01:40:02;100691.13;;;23.62;69.59
13709;BME280;54933;51.908;7.730;2022-09-03T01:45:21;100697.34;;;23.63;69.86
13709;BME280;54933;51.908;7.730;2022-09-03T01:50:57;100698.19;;;23.63;69.81
13709;BME280;54933;51.908;7.730;2022-09-03T01:56:44;100685.69;;;23.62;69.83
13709;BME280;54933;51.908;7.730;2022-09-03T01:59:21;100685.69;;;23.62;70.01
13709;BME280;54933;51.908;7.730;2022-09-03T02:02:04;100690.06;;;23.63;69.98
13709;BME280;54933;51.908;7.730;2022-09-03T02:04:32;100681.91;;;23.63;70.09
13709;BME280;54933;51.908;7.730;2022-09-03T02:06:58;100685.69;;;23.62;70.16
13709;BME280;54933;51.908;7.730;2022-09-03T02:09:25;100679.19;;;23.63;69.99
13709;BME280;54933;51.908;7.730;2022-09-03T02:11:57;100683.56;;;23.64;70.15
13709;BME280;54933;51.908;7.730;2022-09-03T02:14:26;100687.34;;;23.63;70.10
13709;BME280;54933;51.908;7.730;2022-09-03T02:16:55;100681.91;;;23.63;70.11
13709;BME280;54933;51.908;7.730;2022-09-03T02:19:21;100686.25;;;23.64;70.06
13709;BME280;54933;51.908;7.730;2022-09-03T02:21:51;100686.50;;;23.63;70.20
13709;BME280;54933;51.908;7.730;2022-09-03T02:24:17;100688.97;;;23.64;70.14
13709;BME280;54933;51.908;7.730;2022-09-03T02:26:42;100686.25;;;23.64;70.24
13709;BME280;54933;51.908;7.730;2022-09-03T02:29:08;100678.13;;;23.64;70.24
13709;BME280;54933;51.908;7.730;2022-09-03T02:31:33;100676.47;;;23.63;70.09
13709;BME280;54933;51.908;7.730;2022-09-03T02:33:59;100678.13;;;23.64;70.08
13709;BME280;54933;51.908;7.730;2022-09-03T02:36:29;100678.13;;;23.64;70.55
13709;BME280;54933;51.908;7.730;2022-09-03T02:38:56;100675.41;;;23.64;70.22
13709;BME280;54933;51.908;7.730;2022-09-03T02:41:21;100671.91;;;23.64;70.37
13709;BME280;54933;51.908;7.730;2022-09-03T02:44:09;100672.69;;;23.64;70.35
13709;BME280;54933;51.908;7.730;2022-09-03T02:46:41;100673.53;;;23.65;70.09
13709;BME280;54933;51.908;7.730;2022-09-03T02:49:07;100680.84;;;23.64;69.74
13709;BME280;54933;51.908;7.730;2022-09-03T02:51:34;100683.56;;;23.64;70.18
13709;BME280;54933;51.908;7.730;2022-09-03T02:54:00;100679.78;;;23.65;70.37
13709;BME280;54933;51.908;7.730;2022-09-03T02:56:25;100678.13;;;23.64;70.13
13709;BME280;54933;51.908;7.730;2022-09-03T02:58:52;100679.78;;;23.65;70.29
13709;BME280;54933;51.908;7.730;2022-09-03T03:01:17;100675.41;;;23.64;70.08
13709;BME280;54933;51.908;7.730;2022-09-03T03:03:43;100677.31;;;23.64;70.17
13709;BME280;54933;51.908;7.730;2022-09-03T03:06:08;100673.53;;;23.65;70.13
13709;BME280;54933;51.908;7.730;2022-09-03T03:08:34;100678.13;;;23.64;70.09
13709;BME280;54933;51.908;7.730;2022-09-03T03:11:00;100672.69;;;23.64;70.26
13709;BME280;54933;51.908;7.730;2022-09-03T03:13:27;100667.28;;;23.64;70.13
13709;BME280;54933;51.908;7.730;2022-09-03T03:15:57;100667.28;;;23.64;69.97
13709;BME280;54933;51.908;7.730;2022-09-03T03:18:22;100667.28;;;23.64;70.19
13709;BME280;54933;51.908;7.730;2022-09-03T03:20:48;100660.22;;;23.63;69.86
13709;BME280;54933;51.908;7.730;2022-09-03T03:23:13;100661.84;;;23.64;69.83
13709;BME280;54933;51.908;7.730;2022-09-03T03:25:39;100667.28;;;23.64;69.80
13709;BME280;54933;51.908;7.730;2022-09-03T03:28:05;100667.28;;;23.64;69.80
13709;BME280;54933;51.908;7.730;2022-09-03T03:30:31;100663.53;;;23.65;69.90
13709;BME280;54933;51.908;7.730;2022-09-03T03:32:57;100661.84;;;23.64;69.67
13709;BME280;54933;51.908;7.730;2022-09-03T03:35:23;100656.41;;;23.64;69.50
13709;BME280;54933;51.908;7.730;2022-09-03T03:37:48;100656.41;;;23.64;69.58
13709;BME280;54933;51.908;7.730;2022-09-03T03:40:14;100659.13;;;23.64;69.54
13709;BME280;54933;51.908;7.730;2022-09-03T03:42:39;100654.78;;;23.63;69.70
13709;BME280;54933;51.908;7.730;2022-09-03T03:45:06;100669.97;;;23.64;69.71
13709;BME280;54933;51.908;7.730;2022-09-03T03:47:32;100669.97;;;23.64;69.71
13709;BME280;54933;51.908;7.730;2022-09-03T03:49:58;100661.84;;;23.64;69.63
13709;BME280;54933;51.908;7.730;2022-09-03T03:52:25;100668.09;;;23.65;69.35
13709;BME280;54933;51.908;7.730;2022-09-03T03:54:51;100669.97;;;23.64;69.93
13709;BME280;54933;51.908;7.730;2022-09-03T03:57:19;100657.25;;;23.65;69.70
13709;BME280;54933;51.908;7.730;2022-09-03T03:59:45;100659.13;;;23.64;69.63
13709;BME280;54933;51.908;7.730;2022-09-03T04:02:11;100656.41;;;23.64;69.72
13709;BME280;54933;51.908;7.730;2022-09-03T04:04:36;100653.72;;;23.64;69.63
13709;BME280;54933;51.908;7.730;2022-09-03T04:07:01;100655.38;;;23.65;69.90
13709;BME280;54933;51.908;7.730;2022-09-03T04:09:27;100659.97;;;23.65;69.82
13709;BME280;54933;51.908;7.730;2022-09-03T04:11:52;100656.41;;;23.64;70.18
13709;BME280;54933;51.908;7.730;2022-09-03T04:14:17;100654.53;;;23.65;69.97
13709;BME280;54933;51.908;7.730;2022-09-03T04:16:43;100648.28;;;23.64;70.28
13709;BME280;54933;51.908;7.730;2022-09-03T04:19:11;100657.25;;;23.65;70.02
13709;BME280;54933;51.908;7.730;2022-09-03T04:21:37;100648.28;;;23.64;70.10
13709;BME280;54933;51.908;7.730;2022-09-03T04:24:03;100657.25;;;23.65;70.03
13709;BME280;54933;51.908;7.730;2022-09-03T04:26:30;100652.66;;;23.65;70.08
13709;BME280;54933;51.908;7.730;2022-09-03T04:28:56;100652.66;;;23.65;70.25
13709;BME280;54933;51.908;7.730;2022-09-03T04:31:22;100643.69;;;23.65;70.15
13709;BME280;54933;51.908;7.730;2022-09-03T04:33:48;100636.38;;;23.65;70.21
13709;BME280;54933;51.908;7.730;2022-09-03T04:36:19;100642.84;;;23.64;70.26
13709;BME280;54933;51.908;7.730;2022-09-03T04:38:47;100641.81;;;23.65;70.24
13709;BME280;54933;51.908;7.730;2022-09-03T04:41:18;100641.81;;;23.65;70.21
13709;BME280;54933;51.908;7.730;2022-09-03T04:43:44;100640.16;;;23.64;70.19
13709;BME280;54933;51.908;7.730;2022-09-03T04:46:11;100641.81;;;23.65;70.41
13709;BME280;54933;51.908;7.730;2022-09-03T04:48:37;100640.97;;;23.65;70.32
13709;BME280;54933;51.908;7.730;2022-09-03T04:53:31;100639.09;;;23.65;70.21
13709;BME280;54933;51.908;7.730;2022-09-03T04:55:56;100643.69;;;23.65;70.42
13709;BME280;54933;51.908;7.730;2022-09-03T04:58:21;100636.38;;;23.65;70.44
13709;BME280;54933;51.908;7.730;2022-09-03T05:00:47;100635.56;;;23.65;70.33
13709;BME280;54933;51.908;7.730;2022-09-03T05:03:12;100641.81;;;23.65;70.45
13709;BME280;54933;51.908;7.730;2022-09-03T05:05:37;100641.81;;;23.65;70.47
13709;BME280;54933;51.908;7.730;2022-09-03T05:08:03;100639.09;;;23.65;70.41
13709;BME280;54933;51.908;7.730;2022-09-03T05:10:29;100634.72;;;23.64;70.44
13709;BME280;54933;51.908;7.730;2022-09-03T05:12:59;100636.38;;;23.65;70.42
13709;BME280;54933;51.908;7.730;2022-09-03T05:15:26;100630.97;;;23.65;70.03
13709;BME280;54933;51.908;7.730;2022-09-03T05:17:55;100635.56;;;23.65;70.15
13709;BME280;54933;51.908;7.730;2022-09-03T05:20:20;100638.25;;;23.65;70.37
13709;BME280;54933;51.908;7.730;2022-09-03T05:22:46;100639.91;;;23.66;70.30
13709;BME280;54933;51.908;7.730;2022-09-03T05:25:12;100638.25;;;23.65;70.09
13709;BME280;54933;51.908;7.730;2022-09-03T05:27:37;100647.25;;;23.65;70.27
13709;BME280;54933;51.908;7.730;2022-09-03T05:30:03;100641.81;;;23.65;69.95
13709;BME280;54933;51.908;7.730;2022-09-03T05:32:29;100646.41;;;23.65;70.08
13709;BME280;54933;51.908;7.730;2022-09-03T05:34:55;100646.41;;;23.65;70.00
13709;BME280;54933;51.908;7.730;2022-09-03T05:37:20;100646.41;;;23.65;70.04
13709;BME280;54933;51.908;7.730;2022-09-03T05:39:47;100640.97;;;23.65;69.82
13709;BME280;54933;51.908;7.730;2022-09-03T05:42:12;100636.63;;;23.64;70.00
13709;BME280;54933;51.908;7.730;2022-09-03T05:44:39;100633.66;;;23.65;69.79
13709;BME280;54933;51.908;7.730;2022-09-03T05:47:04;100632.84;;;23.65;70.03
13709;BME280;54933;51.908;7.730;2022-09-03T05:49:29;100636.38;;;23.65;69.67
13709;BME280;54933;51.908;7.730;2022-09-03T05:51:56;100629.28;;;23.64;69.94
13709;BME280;54933;51.908;7.730;2022-09-03T05:54:21;100634.47;;;23.66;69.77
13709;BME280;54933;51.908;7.730;2022-09-03T05:56:46;100629.28;;;23.64;69.82
13709;BME280;54933;51.908;7.730;2022-09-03T05:59:12;100634.72;;;23.64;69.72
13709;BME280;54933;51.908;7.730;2022-09-03T06:01:43;100632.00;;;23.64;69.54
13709;BME280;54933;51.908;7.730;2022-09-03T06:04:12;100640.97;;;23.65;69.84
13709;BME280;54933;51.908;7.730;2022-09-03T06:06:40;100644.53;;;23.65;69.75
13709;BME280;54933;51.908;7.730;2022-09-03T06:09:08;100640.16;;;23.64;69.84
13709;BME280;54933;51.908;7.730;2022-09-03T06:11:36;100641.81;;;23.65;69.78
13709;BME280;54933;51.908;7.730;2022-09-03T06:14:03;100639.09;;;23.65;69.76
13709;BME280;54933;51.908;7.730;2022-09-03T06:16:30;100639.09;;;23.65;69.85
13709;BME280;54933;51.908;7.730;2022-09-03T06:18:56;100636.38;;;23.65;69.83
13709;BME280;54933;51.908;7.730;2022-09-03T06:21:22;100636.38;;;23.65;69.79
13709;BME280;54933;51.908;7.730;2022-09-03T06:23:55;100636.38;;;23.65;70.00
13709;BME280;54933;51.908;7.730;2022-09-03T06:26:21;100642.63;;;23.66;70.21
13709;BME280;54933;51.908;7.730;2022-09-03T06:28:47;100637.19;;;23.66;70.07
13709;BME280;54933;51.908;7.730;2022-09-03T06:31:17;100636.38;;;23.65;70.09
13709;BME280;54933;51.908;7.730;2022-09-03T06:33:43;100629.28;;;23.64;70.26
13709;BME280;54933;51.908;7.730;2022-09-03T06:36:12;100639.91;;;23.66;70.17
13709;BME280;54933;51.908;7.730;2022-09-03T06:38:38;100637.19;;;23.66;70.20
13709;BME280;54933;51.908;7.730;2022-09-03T06:41:06;100636.38;;;23.65;70.19
13709;BME280;54933;51.908;7.730;2022-09-03T06:43:34;100642.63;;;23.66;70.52
13709;BME280;54933;51.908;7.730;2022-09-03T06:46:05;100632.59;;;23.66;70.34
13709;BME280;54933;51.908;7.730;2022-09-03T06:48:31;100631.75;;;23.66;70.27
13709;BME280;54933;51.908;7.730;2022-09-03T06:51:02;100639.66;;;23.67;70.33
13709;BME280;54933;51.908;7.730;2022-09-03T06:53:31;100642.63;;;23.66;70.47
13709;BME280;54933;51.908;7.730;2022-09-03T06:55:59;100645.31;;;23.66;70.33
13709;BME280;54933;51.908;7.730;2022-09-03T06:58:33;100652.66;;;23.65;70.24
13709;BME280;54933;51.908;7.730;2022-09-03T07:01:02;100667.03;;;23.66;70.60
13709;BME280;54933;51.908;7.730;2022-09-03T07:03:30;100659.72;;;23.66;70.33
13709;BME280;54933;51.908;7.730;2022-09-03T07:05:59;100662.44;;;23.66;70.49
13709;BME280;54933;51.908;7.730;2022-09-03T07:08:25;100666.00;;;23.67;70.22
13709;BME280;54933;51.908;7.730;2022-09-03T07:10:50;100659.72;;;23.66;70.54
13709;BME280;54933;51.908;7.730;2022-09-03T07:13:16;100658.09;;;23.65;70.34
13709;BME280;54933;51.908;7.730;2022-09-03T07:15:43;100660.56;;;23.67;70.55
13709;BME280;54933;51.908;7.730;2022-09-03T07:18:08;100659.72;;;23.66;70.58
13709;BME280;54933;51.908;7.730;2022-09-03T07:20:33;100655.13;;;23.67;70.40
13709;BME280;54933;51.908;7.730;2022-09-03T07:22:59;100655.13;;;23.67;70.41
13709;BME280;54933;51.908;7.730;2022-09-03T07:25:24;100656.78;;;23.68;70.48
13709;BME280;54933;51.908;7.730;2022-09-03T07:27:52;100654.31;;;23.66;70.38
13709;BME280;54933;51.908;7.730;2022-09-03T07:30:18;100651.59;;;23.66;70.33
13709;BME280;54933;51.908;7.730;2022-09-03T07:32:46;100648.88;;;23.66;70.39
13709;BME280;54933;51.908;7.730;2022-09-03T07:35:12;100655.13;;;23.67;70.43
13709;BME280;54933;51.908;7.730;2022-09-03T07:37:41;100648.88;;;23.66;70.50
13709;BME280;54933;51.908;7.730;2022-09-03T07:40:10;100650.50;;;23.67;70.24
13709;BME280;54933;51.908;7.730;2022-09-03T07:42:36;100649.72;;;23.67;70.22
13709;BME280;54933;51.908;7.730;2022-09-03T07:45:06;100651.59;;;23.66;70.06
13709;BME280;54933;51.908;7.730;2022-09-03T07:47:36;100648.88;;;23.66;70.18
13709;BME280;54933;51.908;7.730;2022-09-03T07:50:03;100648.88;;;23.66;70.08
13709;BME280;54933;51.908;7.730;2022-09-03T07:52:29;100650.50;;;23.67;70.00
13709;BME280;54933;51.908;7.730;2022-09-03T07:54:54;100647.81;;;23.67;70.12
13709;BME280;54933;51.908;7.730;2022-09-03T07:57:19;100650.50;;;23.67;69.96
13709;BME280;54933;51.908;7.730;2022-09-03T07:59:44;100645.09;;;23.67;70.16
13709;BME280;54933;51.908;7.730;2022-09-03T08:02:10;100644.03;;;23.68;69.99
13709;BME280;54933;51.908;7.730;2022-09-03T08:04:35;100638.88;;;23.67;69.95
13709;BME280;54933;51.908;7.730;2022-09-03T08:07:00;100645.09;;;23.67;70.00
13709;BME280;54933;51.908;7.730;2022-09-03T08:09:26;100651.34;;;23.68;69.86
13709;BME280;54933;51.908;7.730;2022-09-03T08:11:51;100645.09;;;23.67;70.11
13709;BME280;54933;51.908;7.730;2022-09-03T08:14:16;100649.72;;;23.67;69.79
13709;BME280;54933;51.908;7.730;2022-09-03T08:16:45;100645.94;;;23.68;70.20
13709;BME280;54933;51.908;7.730;2022-09-03T08:19:14;100639.66;;;23.67;70.02
13709;BME280;54933;51.908;7.730;2022-09-03T08:21:41;100648.63;;;23.68;70.10
13709;BME280;54933;51.908;7.730;2022-09-03T08:24:07;100657.63;;;23.68;70.22
13709;BME280;54933;51.908;7.730;2022-09-03T08:26:34;100652.19;;;23.68;70.01
13709;BME280;54933;51.908;7.730;2022-09-03T08:29:00;100646.75;;;23.68;70.25
13709;BME280;54933;51.908;7.730;2022-09-03T08:31:27;100651.09;;;23.69;70.84
13709;BME280;54933;51.908;7.730;2022-09-03T08:33:54;100648.41;;;23.69;70.45
13709;BME280;54933;51.908;7.730;2022-09-03T08:36:25;100656.53;;;23.69;70.31
13709;BME280;54933;51.908;7.730;2022-09-03T08:38:52;100658.44;;;23.69;70.53
13709;BME280;54933;51.908;7.730;2022-09-03T08:41:51;100657.38;;;23.70;70.42
13709;BME280;54933;51.908;7.730;2022-09-03T08:47:04;100650.06;;;23.70;70.49
13709;BME280;54933;51.908;7.730;2022-09-03T08:49:44;100650.06;;;23.70;70.56
13709;BME280;54933;51.908;7.730;2022-09-03T08:55:01;100658.22;;;23.70;70.27
13709;BME280;54933;51.908;7.730;2022-09-03T08:57:31;100645.44;;;23.71;70.59
13709;BME280;54933;51.908;7.730;2022-09-03T09:00:00;100647.34;;;23.70;70.80
13709;BME280;54933;51.908;7.730;2022-09-03T09:02:37;100656.28;;;23.71;70.78
13709;BME280;54933;51.908;7.730;2022-09-03T09:05:16;100651.72;;;23.71;70.83
13709;BME280;54933;51.908;7.730;2022-09-03T09:07:48;100653.59;;;23.71;70.81
13709;BME280;54933;51.908;7.730;2022-09-03T09:13:09;100646.28;;;23.71;70.87
13709;BME280;54933;51.908;7.730;2022-09-03T09:16:04;100647.91;;;23.72;70.82
13709;BME280;54933;51.908;7.730;2022-09-03T09:21:29;100641.69;;;23.72;70.80
13709;BME280;54933;51.908;7.730;2022-09-03T09:24:00;100647.91;;;23.72;70.54
13709;BME280;54933;51.908;7.730;2022-09-03T09:26:28;100642.72;;;23.71;71.07
13709;BME280;54933;51.908;7.730;2022-09-03T09:28:58;100641.69;;;23.72;71.14
13709;BME280;54933;51.908;7.730;2022-09-03T09:31:26;100637.06;;;23.72;71.01
13709;BME280;54933;51.908;7.730;2022-09-03T09:33:52;100636.25;;;23.72;70.79
13709;BME280;54933;51.908;7.730;2022-09-03T09:36:18;100637.06;;;23.72;70.96
13709;BME280;54933;51.908;7.730;2022-09-03T09:38:45;100628.13;;;23.72;70.76
13709;BME280;54933;51.908;7.730;2022-09-03T09:41:17;100631.63;;;23.72;71.04
13709;BME280;54933;51.908;7.730;2022-09-03T09:43:45;100628.13;;;23.72;70.95
13709;BME280;54933;51.908;7.730;2022-09-03T09:46:19;100630.00;;;23.71;70.83
13709;BME280;54933;51.908;7.730;2022-09-03T09:48:50;100631.63;;;23.72;70.78
13709;BME280;54933;51.908;7.730;2022-09-03T09:53:44;100629.75;;;23.73;70.60
13709;BME280;54933;51.908;7.730;2022-09-03T09:56:23;100616.19;;;23.73;70.91
13709;BME280;54933;51.908;7.730;2022-09-03T09:58:49;100625.16;;;23.73;70.82
13709;BME280;54933;51.908;7.730;2022-09-03T10:01:23;100620.78;;;23.72;70.54
13709;BME280;54933;51.908;7.730;2022-09-03T10:03:53;100609.94;;;23.72;70.77
13709;BME280;54933;51.908;7.730;2022-09-03T10:06:22;100618.91;;;23.73;70.65
13709;BME280;54933;51.908;7.730;2022-09-03T10:09:15;100616.19;;;23.73;70.56
13709;BME280;54933;51.908;7.730;2022-09-03T10:11:47;100622.47;;;23.73;70.71
13709;BME280;54933;51.908;7.730;2022-09-03T10:14:22;100617.03;;;23.73;70.46
13709;BME280;54933;51.908;7.730;2022-09-03T10:17:00;100609.94;;;23.72;70.65
13709;BME280;54933;51.908;7.730;2022-09-03T10:19:38;100609.94;;;23.72;70.44
13709;BME280;54933;51.908;7.730;2022-09-03T10:22:16;100606.19;;;23.73;70.56
13709;BME280;54933;51.908;7.730;2022-09-03T10:24:58;100605.34;;;23.73;70.66
13709;BME280;54933;51.908;7.730;2022-09-03T10:27:23;100601.56;;;23.74;70.60
13709;BME280;54933;51.908;7.730;2022-09-03T10:29:50;100606.97;;;23.74;70.51
13709;BME280;54933;51.908;7.730;2022-09-03T10:32:24;100602.38;;;23.74;70.69
13709;BME280;54933;51.908;7.730;2022-09-03T10:35:25;100607.81;;;23.74;70.69
13709;BME280;54933;51.908;7.730;2022-09-03T10:38:10;100606.19;;;23.73;70.67
13709;BME280;54933;51.908;7.730;2022-09-03T10:40:56;100607.81;;;23.74;70.81
13709;BME280;54933;51.908;7.730;2022-09-03T10:46:17;100607.81;;;23.74;70.72
13709;BME280;54933;51.908;7.730;2022-09-03T10:51:23;100598.63;;;23.75;70.87
13709;BME280;54933;51.908;7.730;2022-09-03T10:56:56;100592.38;;;23.75;70.93
13709;BME280;54933;51.908;7.730;2022-09-03T11:00:16;100593.19;;;23.75;71.03
13709;BME280;54933;51.908;7.730;2022-09-03T11:02:56;100587.78;;;23.75;71.02
13709;BME280;54933;51.908;7.730;2022-09-03T11:05:30;100582.34;;;23.75;71.33
13709;BME280;54933;51.908;7.730;2022-09-03T11:08:05;100588.59;;;23.76;71.22
13709;BME280;54933;51.908;7.730;2022-09-03T11:10:38;100589.41;;;23.76;71.26
13709;BME280;54933;51.908;7.730;2022-09-03T11:13:48;100602.97;;;23.76;71.33
13709;BME280;54933;51.908;7.730;2022-09-03T11:16:25;100585.63;;;23.77;71.09
13709;BME280;54933;51.908;7.730;2022-09-03T11:18:56;100584.00;;;23.76;71.20
13709;BME280;54933;51.908;7.730;2022-09-03T11:21:26;100578.56;;;23.76;71.21
13709;BME280;54933;51.908;7.730;2022-09-03T11:24:03;100588.34;;;23.77;71.26
13709;BME280;54933;51.908;7.730;2022-09-03T11:26:31;100584.00;;;23.76;71.34
13709;BME280;54933;51.908;7.730;2022-09-03T11:29:16;100575.59;;;23.78;71.51
13709;BME280;54933;51.908;7.730;2022-09-03T11:31:55;100580.19;;;23.77;71.40
13709;BME280;54933;51.908;7.730;2022-09-03T11:36:51;100581.03;;;23.78;71.49
13709;BME280;54933;51.908;7.730;2022-09-03T11:39:23;100578.31;;;23.78;71.48
13709;BME280;54933;51.908;7.730;2022-09-03T11:42:30;100580.19;;;23.77;71.42
13709;BME280;54933;51.908;7.730;2022-09-03T11:45:59;100571.00;;;23.78;71.64
13709;BME280;54933;51.908;7.730;2022-09-03T11:47:59;100571.25;;;23.77;71.43
13709;BME280;54933;51.908;7.730;2022-09-03T11:50:29;100572.88;;;23.78;71.69
13709;BME280;54933;51.908;7.730;2022-09-03T11:53:24;100568.28;;;23.78;71.54
13709;BME280;54933;51.908;7.730;2022-09-03T11:56:19;100576.44;;;23.78;71.56
13709;BME280;54933;51.908;7.730;2022-09-03T11:58:44;100569.09;;;23.79;71.70
13709;BME280;54933;51.908;7.730;2022-09-03T12:01:15;100568.28;;;23.78;71.64
13709;BME280;54933;51.908;7.730;2022-09-03T12:04:00;100566.38;;;23.79;71.60
13709;BME280;54933;51.908;7.730;2022-09-03T12:06:37;100563.69;;;23.79;71.42
13709;BME280;54933;51.908;7.730;2022-09-03T12:12:51;100562.88;;;23.78;71.42
13709;BME280;54933;51.908;7.730;2022-09-03T12:21:04;100554.72;;;23.78;71.33
13709;BME280;54933;51.908;7.730;2022-09-03T12:23:41;100556.38;;;23.79;71.54
13709;BME280;54933;51.908;7.730;2022-09-03T12:26:10;100560.72;;;23.80;71.57
13709;BME280;54933;51.908;7.730;2022-09-03T12:28:41;100556.38;;;23.79;71.43
13709;BME280;54933;51.908;7.730;2022-09-03T12:31:27;100550.94;;;23.79;71.35
13709;BME280;54933;51.908;7.730;2022-09-03T12:34:07;100560.97;;;23.79;71.54
13709;BME280;54933;51.908;7.730;2022-09-03T12:36:39;100561.78;;;23.79;71.65
13709;BME280;54933;51.908;7.730;2022-09-03T12:39:28;100558.84;;;23.81;71.65
13709;BME280;54933;51.908;7.730;2022-09-03T12:47:05;100547.97;;;23.81;71.53
13709;BME280;54933;51.908;7.730;2022-09-03T12:49:39;100547.97;;;23.81;71.70
13709;BME280;54933;51.908;7.730;2022-09-03T12:52:14;100551.78;;;23.80;71.77
13709;BME280;54933;51.908;7.730;2022-09-03T12:54:53;100545.50;;;23.79;71.78
13709;BME280;54933;51.908;7.730;2022-09-03T12:57:26;100543.38;;;23.81;71.62
13709;BME280;54933;51.908;7.730;2022-09-03T12:59:57;100543.38;;;23.81;71.84
13709;BME280;54933;51.908;7.730;2022-09-03T13:02:36;100544.22;;;23.82;72.17
13709;BME280;54933;51.908;7.730;2022-09-03T13:05:03;100542.56;;;23.81;71.88
13709;BME280;54933;51.908;7.730;2022-09-03T13:07:34;100539.59;;;23.82;71.75
13709;BME280;54933;51.908;7.730;2022-09-03T13:10:06;100527.09;;;23.81;71.84
13709;BME280;54933;51.908;7.730;2022-09-03T13:12:43;100528.75;;;23.82;72.20
13709;BME280;54933;51.908;7.730;2022-09-03T13:15:20;100525.00;;;23.83;72.03
13709;BME280;54933;51.908;7.730;2022-09-03T13:20:36;100528.75;;;23.82;71.98
13709;BME280;54933;51.908;7.730;2022-09-03T13:26:37;100523.31;;;23.82;72.23
13709;BME280;54933;51.908;7.730;2022-09-03T13:32:07;100515.19;;;23.82;72.39
13709;BME280;54933;51.908;7.730;2022-09-03T13:34:46;100521.69;;;23.81;72.33
13709;BME280;54933;51.908;7.730;2022-09-03T13:37:26;100523.31;;;23.82;72.48
13709;BME280;54933;51.908;7.730;2022-09-03T13:39:56;100519.81;;;23.82;72.24
13709;BME280;54933;51.908;7.730;2022-09-03T13:42:32;100523.31;;;23.82;72.28
13709;BME280;54933;51.908;7.730;2022-09-03T13:45:30;100511.66;;;23.82;72.33
13709;BME280;54933;51.908;7.730;2022-09-03T13:48:16;100518.97;;;23.81;72.52
13709;BME280;54933;51.908;7.730;2022-09-03T13:53:41;100515.19;;;23.82;72.51
13709;BME280;54933;51.908;7.730;2022-09-03T13:59:00;100516.25;;;23.81;72.35
13709;BME280;54933;51.908;7.730;2022-09-03T14:02:07;100505.41;;;23.81;72.53
13709;BME280;54933;51.908;7.730;2022-09-03T14:04:54;100500.81;;;23.82;72.50
13709;BME280;54933;51.908;7.730;2022-09-03T14:07:27;100502.69;;;23.81;72.47
13709;BME280;54933;51.908;7.730;2022-09-03T14:10:20;100507.03;;;23.82;72.66
13709;BME280;54933;51.908;7.730;2022-09-03T14:12:51;100505.41;;;23.81;72.60
13709;BME280;54933;51.908;7.730;2022-09-03T14:15:23;100507.03;;;23.82;72.50
13709;BME280;54933;51.908;7.730;2022-09-03T14:18:11;100507.88;;;23.83;72.48
13709;BME280;54933;51.908;7.730;2022-09-03T14:21:02;100512.47;;;23.82;72.49
13709;BME280;54933;51.908;7.730;2022-09-03T14:26:15;100510.81;;;23.81;72.37
13709;BME280;54933;51.908;7.730;2022-09-03T14:28:48;100517.88;;;23.82;72.42
13709;BME280;54933;51.908;7.730;2022-09-03T14:34:37;100521.44;;;23.83;72.49
13709;BME280;54933;51.908;7.730;2022-09-03T14:40:21;100527.94;;;23.82;72.11
13709;BME280;54933;51.908;7.730;2022-09-03T14:42:58;100519.56;;;23.83;72.50
13709;BME280;54933;51.908;7.730;2022-09-03T14:51:30;100523.31;;;23.82;72.39
13709;BME280;54933;51.908;7.730;2022-09-03T14:57:40;100528.75;;;23.82;72.24
13709;BME280;54933;51.908;7.730;2022-09-03T15:00:20;100531.47;;;23.82;72.33
13709;BME280;54933;51.908;7.730;2022-09-03T15:03:02;100535.00;;;23.83;72.58
13709;BME280;54933;51.908;7.730;2022-09-03T15:06:01;100539.59;;;23.82;72.44
13709;BME280;54933;51.908;7.730;2022-09-03T15:08:53;100536.09;;;23.82;72.64
13709;BME280;54933;51.908;7.730;2022-09-03T15:11:22;100528.75;;;23.82;72.81
13709;BME280;54933;51.908;7.730;2022-09-03T15:13:58;100539.59;;;23.82;72.76
13709;BME280;54933;51.908;7.730;2022-09-03T15:19:07;100531.47;;;23.82;72.96